Time;durP1;ratioP1;P1;durP2;ratioP2;P2;SDS_P1;SDS_P2;PMS_P1;PMS_P2;Temp;Humidity;BMP_temperature;BMP_pressure;BME280_temperature;BME280_humidity;BME280_pressure;Samples;Min_cycle;Max_cycle;Signal;HPM_P1;HPM_P2
2021/09/11 00:02:15;;;;;;;;;6.00;6.00;;;;;22.55;57.85;101214.03;5080779;27;45479;-62
2021/09/11 00:04:46;;;;;;;;;4.00;4.00;;;;;22.51;58.01;101221.50;5061595;28;47200;-63
2021/09/11 00:07:11;;;;;;;;;4.00;4.00;;;;;22.50;57.83;101221.59;5080390;27;45695;-63
2021/09/11 00:09:37;;;;;;;;;3.67;3.67;;;;;22.48;57.48;101218.09;5079824;27;45536;-63
2021/09/11 00:12:03;;;;;;;;;4.00;4.00;;;;;22.44;57.36;101220.13;5077515;28;45583;-62
2021/09/11 00:14:29;;;;;;;;;2.50;2.50;;;;;22.42;57.62;101227.47;5079814;28;46842;-62
2021/09/11 00:16:54;;;;;;;;;4.75;4.25;;;;;22.41;57.85;101223.03;5079781;28;45353;-62
2021/09/11 00:19:20;;;;;;;;;3.67;3.67;;;;;22.41;57.73;101219.47;5080174;28;45445;-63
2021/09/11 00:21:45;;;;;;;;;3.75;3.25;;;;;22.40;57.48;101217.72;5080300;28;45421;-62
2021/09/11 00:24:11;;;;;;;;;4.67;4.67;;;;;22.36;57.85;101225.19;5079822;28;47201;-63
2021/09/11 00:26:36;;;;;;;;;5.33;5.33;;;;;22.33;58.09;101222.63;5062337;27;46348;-63
2021/09/11 00:29:02;;;;;;;;;3.67;3.67;;;;;22.32;57.81;101219.06;5081274;27;45394;-62
2021/09/11 00:31:27;;;;;;;;;3.67;3.67;;;;;22.30;57.75;101221.00;5087834;27;45622;-62
2021/09/11 00:33:53;;;;;;;;;3.00;3.00;;;;;22.30;57.63;101220.13;5062805;28;47311;-63
2021/09/11 00:36:18;;;;;;;;;4.00;4.00;;;;;22.29;57.32;101221.97;5079923;28;45352;-62
2021/09/11 00:38:44;;;;;;;;;3.33;3.33;;;;;22.28;57.46;101219.38;5079260;27;45461;-62
2021/09/11 00:41:10;;;;;;;;;3.33;3.33;;;;;22.26;57.65;101216.75;5064909;28;45699;-62
2021/09/11 00:43:46;;;;;;;;;3.00;3.00;;;;;22.26;57.22;101221.31;5059080;28;45413;-62
2021/09/11 00:46:11;;;;;;;;;3.33;3.33;;;;;22.25;57.09;101215.03;5063716;27;45390;-62
2021/09/11 00:48:37;;;;;;;;;4.33;4.33;;;;;22.23;57.45;101210.66;5079705;27;45445;-62
2021/09/11 00:51:02;;;;;;;;;4.67;3.00;;;;;22.22;57.15;101212.50;5079873;28;45587;-63
2021/09/11 00:53:28;;;;;;;;;4.67;4.67;;;;;22.20;56.63;101208.16;5078608;28;47371;-62
2021/09/11 00:55:54;;;;;;;;;4.00;4.00;;;;;22.18;57.20;101215.50;5079732;28;45378;-62
2021/09/11 00:58:19;;;;;;;;;4.00;3.33;;;;;22.15;57.38;101213.00;5079592;28;45437;-62
2021/09/11 01:00:45;;;;;;;;;3.67;3.67;;;;;22.15;57.33;101215.69;5079755;28;45668;-63
2021/09/11 01:03:11;;;;;;;;;4.00;4.00;;;;;22.15;56.65;101226.50;5060821;28;46752;-62
2021/09/11 01:05:38;;;;;;;;;4.00;3.00;;;;;22.12;56.86;101226.69;5079621;28;45435;-62
2021/09/11 01:08:05;;;;;;;;;4.00;4.00;;;;;22.07;56.73;101223.38;5079902;27;45726;-62
2021/09/11 01:10:31;;;;;;;;;4.00;4.00;;;;;22.04;56.82;101225.28;5059568;28;45492;-62
2021/09/11 01:12:58;;;;;;;;;5.00;4.00;;;;;22.03;56.82;101223.56;5059945;28;47067;-62
2021/09/11 01:15:38;;;;;;;;;3.00;3.00;;;;;22.00;57.19;101223.75;5053934;28;45748;-62
2021/09/11 01:18:04;;;;;;;;;4.00;4.00;;;;;22.00;56.98;101222.88;5066682;28;45320;-62
2021/09/11 01:20:31;;;;;;;;;4.67;3.33;;;;;22.01;56.45;101230.03;5079661;27;45460;-63
2021/09/11 01:22:57;;;;;;;;;3.00;3.00;;;;;22.01;56.52;101230.88;5078642;28;48358;-62
2021/09/11 01:25:23;;;;;;;;;4.67;3.67;;;;;22.00;56.62;101237.25;5078966;28;45405;-62
2021/09/11 01:27:49;;;;;;;;;4.67;3.67;;;;;21.99;57.17;101238.22;5077859;27;45440;-62
2021/09/11 01:30:17;;;;;;;;;4.67;4.67;;;;;21.98;56.69;101233.78;5079387;28;45501;-62
2021/09/11 01:32:44;;;;;;;;;2.33;2.33;;;;;21.99;56.98;101237.38;5078678;28;47535;-62
2021/09/11 01:35:10;;;;;;;;;3.00;3.00;;;;;21.98;56.60;101232.91;5078884;27;45984;-62
2021/09/11 01:37:36;;;;;;;;;6.00;6.00;;;;;21.97;56.41;101239.25;5079066;27;45356;-62
2021/09/11 01:40:02;;;;;;;;;3.67;3.67;;;;;21.95;56.46;101239.34;5069225;27;45327;-62
2021/09/11 01:42:28;;;;;;;;;4.00;4.00;;;;;21.92;56.32;101234.16;5067322;27;45519;-62
2021/09/11 01:44:57;;;;;;;;;3.33;3.00;;;;;21.89;56.57;101242.44;5078097;27;45402;-63
2021/09/11 01:47:23;;;;;;;;;3.00;3.00;;;;;21.89;56.80;101242.44;5078635;27;45329;-62
2021/09/11 01:49:49;;;;;;;;;4.00;4.00;;;;;21.89;56.84;101242.44;5079160;27;45488;-63
2021/09/11 01:52:14;;;;;;;;;4.00;4.00;;;;;21.89;56.39;101242.44;5078770;27;48680;-62
2021/09/11 01:54:41;;;;;;;;;4.33;4.00;;;;;21.87;56.75;101241.69;5078877;27;45470;-62
2021/09/11 01:57:08;;;;;;;;;3.67;3.67;;;;;21.87;56.91;101238.09;5060657;28;45484;-62
2021/09/11 01:59:34;;;;;;;;;5.00;5.00;;;;;21.86;56.78;101245.34;5079052;27;45436;-62
2021/09/11 02:02:01;;;;;;;;;4.00;3.00;;;;;21.83;57.00;101240.09;5077075;27;47309;-62
2021/09/11 02:04:26;;;;;;;;;3.33;3.33;;;;;21.80;56.72;101240.28;5077259;27;45624;-62
2021/09/11 02:06:52;;;;;;;;;2.67;2.33;;;;;21.78;57.01;101236.81;5078608;27;45616;-62
2021/09/11 02:09:18;;;;;;;;;3.67;3.67;;;;;21.77;56.63;101239.63;5060354;28;45378;-62
2021/09/11 02:11:44;;;;;;;;;4.00;3.00;;;;;21.76;56.89;101240.56;5077070;27;47127;-62
2021/09/11 02:14:09;;;;;;;;;2.00;2.00;;;;;21.72;56.30;101240.78;5068119;28;45457;-62
2021/09/11 02:16:35;;;;;;;;;3.67;3.67;;;;;21.72;56.42;101234.47;5078576;28;45766;-62
2021/09/11 02:19:00;;;;;;;;;2.67;2.67;;;;;21.69;56.79;101245.47;5078773;28;45295;-62
2021/09/11 02:21:26;;;;;;;;;3.00;3.00;;;;;21.66;56.21;101243.81;5078430;28;48262;-60
2021/09/11 02:23:51;;;;;;;;;4.00;4.00;;;;;21.64;56.40;101247.59;5078480;28;45330;-62
2021/09/11 02:26:17;;;;;;;;;2.33;2.33;;;;;21.62;56.42;101242.28;5078274;28;45340;-62
2021/09/11 02:28:45;;;;;;;;;4.00;4.00;;;;;21.62;56.87;101241.41;5088861;27;45838;-61
2021/09/11 02:31:11;;;;;;;;;4.00;3.00;;;;;21.59;56.56;101242.44;5082291;27;45482;-62
2021/09/11 02:33:42;;;;;;;;;3.00;3.00;;;;;21.57;56.95;101238.94;5078283;28;45915;-62
2021/09/11 02:36:07;;;;;;;;;3.00;3.00;;;;;21.56;56.57;101239.91;5073545;28;45361;-61
2021/09/11 02:38:33;;;;;;;;;3.50;3.50;;;;;21.55;56.60;101234.63;5059952;28;45314;-61
2021/09/11 02:40:59;;;;;;;;;1.50;1.50;;;;;21.54;56.22;101238.28;5089932;27;47216;-62
2021/09/11 02:43:25;;;;;;;;;4.50;4.50;;;;;21.53;56.77;101232.00;5076414;28;45969;-62
2021/09/11 02:45:51;;;;;;;;;3.33;3.00;;;;;21.51;56.62;101231.22;5077583;28;45455;-61
2021/09/11 02:48:16;;;;;;;;;3.50;3.50;;;;;21.49;56.58;101229.59;5060351;28;45363;-61
2021/09/11 02:50:42;;;;;;;;;3.00;3.00;;;;;21.48;56.44;101230.56;5077629;28;48214;-62
2021/09/11 02:53:07;;;;;;;;;3.67;3.67;;;;;21.45;56.26;101228.88;5077948;28;45328;-62
2021/09/11 02:55:33;;;;;;;;;2.75;2.50;;;;;21.44;56.94;101225.31;5077262;28;45262;-61
2021/09/11 02:57:58;;;;;;;;;3.75;3.75;;;;;21.42;56.54;101223.66;5078309;28;45296;-60
2021/09/11 03:00:23;;;;;;;;;2.33;2.33;;;;;21.43;56.68;101228.09;5077310;28;47141;-61
2021/09/11 03:02:49;;;;;;;;;3.00;3.00;;;;;21.42;56.33;101229.06;5077583;28;45628;-61
2021/09/11 03:05:15;;;;;;;;;3.33;3.33;;;;;21.41;56.31;101230.91;5072652;28;45270;-61
2021/09/11 03:07:40;;;;;;;;;4.00;3.00;;;;;21.37;56.70;101231.19;5073226;27;45724;-61
2021/09/11 03:10:06;;;;;;;;;3.00;3.00;;;;;21.34;56.57;101234.03;5078776;27;47069;-62
2021/09/11 03:12:32;;;;;;;;;3.67;3.67;;;;;21.31;56.86;101232.38;5076560;28;45311;-61
2021/09/11 03:14:57;;;;;;;;;2.00;2.00;;;;;21.31;56.15;101235.09;5077018;28;45573;-61
2021/09/11 03:17:23;;;;;;;;;2.00;2.00;;;;;21.31;56.67;101237.78;5077806;28;45329;-62
2021/09/11 03:19:48;;;;;;;;;2.00;2.00;;;;;21.31;56.27;101229.69;5077480;28;46295;-61
2021/09/11 03:22:13;;;;;;;;;2.00;2.00;;;;;21.31;56.22;101229.69;5077408;28;45921;-61
2021/09/11 03:24:40;;;;;;;;;2.00;2.00;;;;;21.30;56.14;101233.34;5077452;28;45416;-61
2021/09/11 03:27:06;;;;;;;;;2.00;2.00;;;;;21.30;56.68;101229.78;5084641;27;45283;-61
2021/09/11 03:29:32;;;;;;;;;2.00;2.00;;;;;21.28;55.95;101234.41;5080611;27;47666;-62
2021/09/11 03:31:57;;;;;;;;;2.00;2.00;;;;;21.25;56.64;101232.75;5092889;27;45882;-61
2021/09/11 03:34:23;;;;;;;;;2.00;2.00;;;;;21.25;56.51;101229.16;5063218;28;45399;-61
2021/09/11 03:36:48;;;;;;;;;2.00;2.00;;;;;21.21;56.41;101222.16;5069565;27;45469;-61
2021/09/11 03:39:14;;;;;;;;;2.00;2.00;;;;;21.16;56.13;101231.41;5076709;27;48181;-61
2021/09/11 03:41:39;;;;;;;;;2.00;2.00;;;;;21.17;56.27;101224.19;5085578;27;45759;-61
2021/09/11 03:44:05;;;;;;;;;1.33;1.33;;;;;21.15;56.65;101226.09;5080596;27;45318;-59
2021/09/11 03:46:30;;;;;;;;;4.00;2.33;;;;;21.13;56.26;101223.50;5080666;27;45431;-61
2021/09/11 03:48:56;;;;;;;;;3.33;2.33;;;;;21.14;56.66;101233.34;5080426;27;47705;-61
2021/09/11 03:51:21;;;;;;;;;1.00;1.00;;;;;21.10;56.09;101226.38;5062355;28;45651;-61
2021/09/11 03:53:47;;;;;;;;;2.67;2.67;;;;;21.06;56.75;101219.41;5080600;27;45531;-61
2021/09/11 03:56:12;;;;;;;;;2.00;2.00;;;;;21.04;56.79;101225.84;5080765;27;45425;-61
2021/09/11 03:58:38;;;;;;;;;2.67;2.67;;;;;21.02;56.20;101233.16;5080193;27;47469;-61
2021/09/11 04:01:04;;;;;;;;;1.00;1.00;;;;;21.01;56.80;101243.09;5079958;27;45298;-61
2021/09/11 04:03:31;;;;;;;;;2.00;2.00;;;;;20.99;56.26;101236.06;5080261;27;45460;-61
2021/09/11 04:05:57;;;;;;;;;1.67;1.67;;;;;21.00;56.30;101237.78;5080694;27;45326;-61
2021/09/11 04:08:24;;;;;;;;;1.00;1.00;;;;;20.98;56.65;101239.72;5079947;27;47872;-62
2021/09/11 04:10:49;;;;;;;;;3.00;1.33;;;;;20.95;56.37;101237.16;5062092;28;46318;-61
2021/09/11 04:13:14;;;;;;;;;2.00;2.00;;;;;20.93;56.61;101239.94;5077196;27;45796;-59
2021/09/11 04:15:40;;;;;;;;;1.33;1.33;;;;;20.94;56.28;101246.22;5072543;28;45507;-60
2021/09/11 04:18:05;;;;;;;;;1.67;1.67;;;;;20.92;56.57;101245.44;5080523;28;48201;-60
2021/09/11 04:20:31;;;;;;;;;3.33;3.33;;;;;20.91;56.90;101243.69;5080495;28;45411;-64
2021/09/11 04:22:56;;;;;;;;;2.67;2.67;;;;;20.88;56.46;101238.47;5061821;28;45309;-61
2021/09/11 04:25:22;;;;;;;;;2.00;2.00;;;;;20.85;56.52;101247.63;5080345;28;45295;-61
2021/09/11 04:27:47;;;;;;;;;1.67;1.00;;;;;20.80;57.16;101239.78;5069157;28;47098;-61
2021/09/11 04:30:13;;;;;;;;;1.00;1.00;;;;;20.79;56.99;101250.66;5079614;28;45354;-61
2021/09/11 04:32:39;;;;;;;;;2.67;1.00;;;;;20.81;56.98;101246.91;5070525;28;45444;-61
2021/09/11 04:35:05;;;;;;;;;2.00;2.00;;;;;20.82;56.85;101247.78;5071256;28;45341;-61
2021/09/11 04:37:30;;;;;;;;;1.00;1.00;;;;;20.80;56.26;101244.28;5060956;28;47124;-61
2021/09/11 04:39:56;;;;;;;;;1.00;1.00;;;;;20.77;56.92;101242.66;5085078;27;45980;-61
2021/09/11 04:42:21;;;;;;;;;3.00;3.00;;;;;20.76;56.96;101245.44;5064140;27;45275;-61
2021/09/11 04:44:47;;;;;;;;;2.00;2.00;;;;;20.77;56.47;101236.38;5079577;28;45252;-61
2021/09/11 04:47:12;;;;;;;;;3.33;3.00;;;;;20.76;56.67;101243.59;5079640;27;45557;-61
2021/09/11 04:49:38;;;;;;;;;1.00;1.00;;;;;20.75;56.47;101238.28;5079862;28;45331;-62
2021/09/11 04:52:05;;;;;;;;;2.00;2.00;;;;;20.73;56.40;101249.19;5079913;28;45528;-61
2021/09/11 04:54:30;;;;;;;;;1.33;1.00;;;;;20.70;56.45;101251.16;5072316;27;45504;-61
2021/09/11 04:56:56;;;;;;;;;1.00;1.00;;;;;20.69;56.48;101246.72;5073314;27;47173;-61
2021/09/11 04:59:21;;;;;;;;;1.33;1.33;;;;;20.70;57.00;101251.16;5079181;28;45857;-61
2021/09/11 05:01:47;;;;;;;;;1.00;1.00;;;;;20.69;56.73;101250.28;5072708;27;45644;-61
2021/09/11 05:04:12;;;;;;;;;1.33;1.33;;;;;20.68;56.57;101259.31;5077123;28;45432;-61
2021/09/11 05:06:38;;;;;;;;;1.00;1.00;;;;;20.68;56.63;101253.94;5058893;28;48351;-61
2021/09/11 05:09:03;;;;;;;;;0.00;0.00;;;;;20.67;56.92;101254.03;5083388;27;45421;-60
2021/09/11 05:11:28;;;;;;;;;1.67;1.67;;;;;20.67;56.64;101257.59;5061075;28;45464;-61
2021/09/11 05:13:54;;;;;;;;;1.00;1.00;;;;;20.66;56.96;101253.16;5079141;27;45673;-64
2021/09/11 05:16:19;;;;;;;;;3.00;1.00;;;;;20.65;56.57;101253.25;5071882;28;47201;-60
2021/09/11 05:18:45;;;;;;;;;1.00;1.00;;;;;20.66;56.41;101263.06;5078697;28;45725;-61
2021/09/11 05:21:10;;;;;;;;;3.00;2.00;;;;;20.66;56.96;101260.38;5079364;27;45238;-61
2021/09/11 05:23:36;;;;;;;;;3.67;3.00;;;;;20.67;56.42;101265.69;5079122;27;45293;-61
2021/09/11 05:26:03;;;;;;;;;2.00;2.00;;;;;20.65;56.82;101264.91;5054033;28;47159;-61
2021/09/11 05:28:29;;;;;;;;;2.67;2.67;;;;;20.64;56.47;101263.16;5081082;27;45364;-62
2021/09/11 05:30:54;;;;;;;;;3.67;3.67;;;;;20.64;56.57;101271.25;5079015;27;45474;-61
2021/09/11 05:33:20;;;;;;;;;2.00;2.00;;;;;20.65;56.40;101270.28;5060685;28;45530;-61
2021/09/11 05:35:46;;;;;;;;;2.00;2.00;;;;;20.64;56.50;101273.94;5078384;28;45648;-61
2021/09/11 05:38:11;;;;;;;;;1.00;1.00;;;;;20.64;56.67;101262.28;5078591;27;45689;-61
2021/09/11 05:40:37;;;;;;;;;1.00;1.00;;;;;20.62;56.42;101265.06;5090066;27;45654;-61
2021/09/11 05:43:02;;;;;;;;;2.67;2.67;;;;;20.62;56.54;101270.47;5076812;27;45558;-61
2021/09/11 05:45:28;;;;;;;;;3.00;1.33;;;;;20.62;56.47;101275.00;5070929;27;47500;-62
2021/09/11 05:47:53;;;;;;;;;2.00;2.00;;;;;20.63;56.67;101271.34;5063363;27;45520;-61
2021/09/11 05:50:19;;;;;;;;;3.00;2.00;;;;;20.63;56.74;101274.91;5066899;27;45440;-61
2021/09/11 05:52:45;;;;;;;;;1.00;1.00;;;;;20.64;56.68;101279.34;5071288;27;45377;-61
2021/09/11 05:55:11;;;;;;;;;2.00;2.00;;;;;20.65;56.92;101277.50;5064837;27;47272;-60
2021/09/11 05:57:36;;;;;;;;;2.33;2.33;;;;;20.65;56.65;101283.78;5071644;27;45519;-62
2021/09/11 06:00:04;;;;;;;;;1.00;1.00;;;;;20.65;56.57;101289.16;5078025;27;45371;-61
2021/09/11 06:02:29;;;;;;;;;4.00;2.67;;;;;20.67;56.26;101291.78;5071499;27;45449;-61
2021/09/11 06:04:55;;;;;;;;;0.00;0.00;;;;;20.67;56.35;101298.03;5075941;27;46207;-61
2021/09/11 06:07:20;;;;;;;;;2.00;2.00;;;;;20.67;56.73;101306.13;5066814;27;45494;-62
2021/09/11 06:09:46;;;;;;;;;2.67;2.00;;;;;20.68;56.28;101313.28;5069147;27;45616;-61
2021/09/11 06:12:11;;;;;;;;;2.00;2.00;;;;;20.69;56.84;101314.13;5065383;28;45385;-61
2021/09/11 06:14:40;;;;;;;;;1.67;1.67;;;;;20.70;56.48;101318.56;5062507;27;48030;-60
2021/09/11 06:17:07;;;;;;;;;1.00;1.00;;;;;20.69;56.65;101316.84;5068701;27;45715;-60
2021/09/11 06:19:33;;;;;;;;;2.00;2.00;;;;;20.71;56.34;101318.53;5073566;27;45599;-60
2021/09/11 06:22:00;;;;;;;;;2.33;2.00;;;;;20.71;56.98;101320.31;5053385;28;45406;-60
2021/09/11 06:24:26;;;;;;;;;1.00;1.00;;;;;20.70;56.56;101322.16;5055271;28;47153;-60
2021/09/11 06:26:51;;;;;;;;;1.33;1.33;;;;;20.72;56.52;101320.25;5066446;28;45548;-59
2021/09/11 06:29:17;;;;;;;;;1.67;1.67;;;;;20.73;56.85;101324.69;5046287;28;46015;-60
2021/09/11 06:31:42;;;;;;;;;1.00;1.00;;;;;20.72;56.62;101317.56;5070645;27;45496;-60
2021/09/11 06:34:07;;;;;;;;;1.00;1.00;;;;;20.74;56.51;101323.75;5073123;27;46061;-60
2021/09/11 06:36:33;;;;;;;;;2.00;2.00;;;;;20.76;56.68;101331.75;5070819;27;45758;-60
2021/09/11 06:38:58;;;;;;;;;1.75;1.75;;;;;20.78;56.33;101332.53;5066146;27;45453;-60
2021/09/11 06:41:24;;;;;;;;;1.00;1.00;;;;;20.80;56.91;101327.91;5069212;27;45594;-62
2021/09/11 06:43:49;;;;;;;;;1.00;1.00;;;;;20.81;56.86;101325.13;5068448;27;45782;-62
2021/09/11 06:46:15;;;;;;;;;2.75;1.75;;;;;20.83;56.86;101334.03;5069992;27;45291;-59
2021/09/11 06:48:40;;;;;;;;;2.00;2.00;;;;;20.86;56.36;101325.78;5068183;27;44792;-60
2021/09/11 06:51:06;;;;;;;;;2.00;2.00;;;;;20.86;56.51;101328.47;5060843;27;45324;-59
2021/09/11 06:53:31;;;;;;;;;3.00;3.00;;;;;20.89;56.25;101327.41;5061480;28;47592;-60
2021/09/11 06:55:57;;;;;;;;;1.00;1.00;;;;;20.91;56.02;101328.19;5067361;28;45655;-60
2021/09/11 06:58:23;;;;;;;;;2.00;2.00;;;;;20.91;56.43;101330.91;5061482;28;45544;-60
2021/09/11 07:00:48;;;;;;;;;2.00;1.25;;;;;20.93;56.44;101336.22;5054203;28;45595;-60
2021/09/11 07:03:15;;;;;;;;;2.00;2.00;;;;;20.97;56.40;101337.81;5072213;28;48360;-60
2021/09/11 07:05:42;;;;;;;;;10.00;9.00;;;;;20.96;55.94;101331.53;5065467;28;45543;-60
2021/09/11 07:08:07;;;;;;;;;1.33;1.33;;;;;20.98;56.05;101337.72;5059959;28;45555;-60
2021/09/11 07:10:33;;;;;;;;;1.00;1.00;;;;;20.99;55.79;101341.28;5066670;28;45269;-60
2021/09/11 07:12:59;;;;;;;;;2.00;2.00;;;;;21.01;55.88;101352.84;5080375;28;48114;-60
2021/09/11 07:15:24;;;;;;;;;1.33;1.33;;;;;21.01;56.28;101350.16;5068156;27;45795;-61
2021/09/11 07:17:51;;;;;;;;;2.00;2.00;;;;;20.99;55.56;101349.38;5054853;28;45502;-61
2021/09/11 07:20:16;;;;;;;;;3.00;3.00;;;;;20.98;55.82;101355.75;5073582;28;45445;-60
2021/09/11 07:22:42;;;;;;;;;3.00;3.00;;;;;20.98;55.97;101351.22;5080356;28;47167;-61
2021/09/11 07:25:08;;;;;;;;;1.00;1.00;;;;;20.95;55.93;101354.06;5078887;28;45382;-61
2021/09/11 07:27:33;;;;;;;;;2.67;2.67;;;;;20.93;55.54;101355.97;5067051;27;45302;-61
2021/09/11 07:29:59;;;;;;;;;1.67;1.67;;;;;20.94;55.98;101354.13;5063499;27;45604;-61
2021/09/11 07:32:26;;;;;;;;;2.00;2.00;;;;;20.95;55.52;101354.06;5068437;27;48108;-61
2021/09/11 07:34:52;;;;;;;;;2.25;2.00;;;;;20.97;56.04;101354.00;5063162;28;45683;-61
2021/09/11 07:37:17;;;;;;;;;3.00;2.00;;;;;21.03;55.48;101353.66;5070231;28;45902;-61
2021/09/11 07:39:43;;;;;;;;;2.00;1.00;;;;;21.05;55.55;101351.72;5080064;27;45815;-61
2021/09/11 07:42:08;;;;;;;;;1.75;1.75;;;;;21.07;55.11;101353.38;5072116;28;47628;-61
2021/09/11 07:44:34;;;;;;;;;1.33;0.00;;;;;21.10;55.29;101352.38;5064494;28;45426;-61
2021/09/11 07:47:00;;;;;;;;;1.50;1.50;;;;;21.10;55.56;101355.94;5068091;28;45447;-60
2021/09/11 07:49:25;;;;;;;;;2.00;2.00;;;;;21.08;55.62;101357.81;5079550;28;45737;-63
2021/09/11 07:51:51;;;;;;;;;1.00;1.00;;;;;21.10;55.50;101353.22;5074802;28;46138;-59
2021/09/11 07:54:16;;;;;;;;;2.25;2.25;;;;;21.13;55.49;101355.75;5080145;28;45216;-61
2021/09/11 07:56:42;;;;;;;;;1.75;1.75;;;;;21.15;55.21;101356.53;5079877;28;45362;-61
2021/09/11 07:59:08;;;;;;;;;1.33;1.33;;;;;21.14;55.45;101362.88;5080361;28;45582;-60
2021/09/11 08:01:33;;;;;;;;;1.33;1.00;;;;;21.15;54.59;101351.13;5077535;27;47363;-62
2021/09/11 08:03:59;;;;;;;;;1.00;1.00;;;;;21.16;54.78;101366.38;5077439;28;45308;-62
2021/09/11 08:06:24;;;;;;;;;1.00;1.00;;;;;21.17;54.27;101368.13;5053857;28;45473;-61
2021/09/11 08:08:50;;;;;;;;;1.00;1.00;;;;;21.19;54.75;101364.47;5059249;28;45339;-60
2021/09/11 08:11:16;;;;;;;;;1.00;1.00;;;;;21.20;54.72;101364.38;5073023;28;47348;-61
2021/09/11 08:13:42;;;;;;;;;1.33;1.33;;;;;21.20;54.04;101366.19;5071495;28;45922;-60
2021/09/11 08:16:08;;;;;;;;;0.67;0.67;;;;;21.23;54.32;101375.03;5049983;28;46088;-61
2021/09/11 08:18:33;;;;;;;;;4.00;3.00;;;;;21.26;55.10;101374.00;5072495;28;45477;-61
2021/09/11 08:20:59;;;;;;;;;1.00;1.00;;;;;21.29;54.15;101373.81;5077764;27;47115;-61
2021/09/11 08:23:25;;;;;;;;;1.33;1.00;;;;;21.32;54.17;101379.91;5088889;27;45846;-62
2021/09/11 08:25:50;;;;;;;;;2.00;2.00;;;;;21.34;54.23;101380.72;5058889;28;45463;-62
2021/09/11 08:28:16;;;;;;;;;1.33;1.33;;;;;21.37;53.72;101385.06;5073132;27;45689;-62
2021/09/11 08:30:42;;;;;;;;;2.00;2.00;;;;;21.38;54.18;101386.81;5078349;27;48242;-63
2021/09/11 08:33:12;;;;;;;;;0.00;0.00;;;;;21.39;53.63;101388.56;5051957;28;45792;-64
2021/09/11 08:35:38;;;;;;;;;1.00;1.00;;;;;21.42;53.55;101389.25;5076794;27;45922;-65
2021/09/11 08:38:03;;;;;;;;;1.00;1.00;;;;;21.44;53.59;101400.81;5078979;27;45351;-65
2021/09/11 08:40:29;;;;;;;;;2.00;0.00;;;;;21.45;53.36;101396.28;5081271;27;47118;-64
2021/09/11 08:42:54;;;;;;;;;2.00;1.00;;;;;21.48;52.71;101396.16;5079071;27;45388;-64
2021/09/11 08:45:20;;;;;;;;;0.33;0.33;;;;;21.49;52.78;101402.41;5057645;27;45492;-64
2021/09/11 08:47:48;;;;;;;;;1.00;1.00;;;;;21.49;52.93;101397.03;5072035;27;45566;-64
2021/09/11 08:50:17;;;;;;;;;2.00;2.00;;;;;21.51;53.16;101398.66;5079267;27;47819;-64
2021/09/11 08:52:48;;;;;;;;;1.00;1.00;;;;;21.52;53.42;101400.41;5072350;27;45357;-65
2021/09/11 08:55:15;;;;;;;;;1.00;1.00;;;;;21.54;52.72;101403.88;5078492;27;45672;-64
2021/09/11 08:57:58;;;;;;;;;1.00;1.00;;;;;21.59;53.07;101400.91;5079120;28;45750;-64
2021/09/11 09:00:51;;;;;;;;;2.00;2.00;;;;;21.61;52.85;101394.50;5077110;27;47278;-64
2021/09/11 09:03:35;;;;;;;;;0.00;0.00;;;;;21.64;52.44;101391.63;5078723;27;45654;-64
2021/09/11 09:06:34;;;;;;;;;4.50;3.00;;;;;21.66;52.98;101388.81;5071550;27;45825;-63
2021/09/11 09:09:10;;;;;;;;;2.00;2.00;;;;;21.69;52.65;101388.63;5040462;28;45415;-64
2021/09/11 09:11:38;;;;;;;;;3.25;3.25;;;;;21.70;52.46;101393.94;5078812;27;47780;-64
2021/09/11 09:14:07;;;;;;;;;1.00;1.00;;;;;21.73;52.59;101391.09;5078313;27;45398;-64
2021/09/11 09:16:36;;;;;;;;;2.25;2.00;;;;;21.74;52.39;101394.66;5078772;27;45681;-63
2021/09/11 09:19:12;;;;;;;;;3.33;2.00;;;;;21.74;52.02;101403.63;5079410;27;45476;-63
2021/09/11 09:21:38;;;;;;;;;2.00;2.00;;;;;21.79;52.36;101397.09;5078964;27;47297;-63
2021/09/11 09:24:06;;;;;;;;;2.00;1.75;;;;;21.82;51.81;101405.00;5078747;27;45588;-63
2021/09/11 09:26:49;;;;;;;;;1.33;1.33;;;;;21.85;51.65;101400.31;5079193;27;45498;-63
2021/09/11 09:29:16;;;;;;;;;4.00;2.00;;;;;21.87;51.61;101397.53;5062299;27;45422;-63
2021/09/11 09:31:44;;;;;;;;;1.00;1.00;;;;;21.89;51.67;101393.78;5063066;27;46824;-64
2021/09/11 09:34:10;;;;;;;;;2.00;2.00;;;;;21.91;52.22;101393.69;5071410;27;46061;-63
2021/09/11 09:36:38;;;;;;;;;2.67;1.33;;;;;21.95;51.64;101400.63;5060405;28;45859;-63
2021/09/11 09:39:09;;;;;;;;;1.00;1.00;;;;;21.97;51.73;101391.47;5075468;27;45439;-64
2021/09/11 09:41:49;;;;;;;;;1.33;1.33;;;;;21.99;51.57;101396.81;5078176;27;47303;-64
2021/09/11 09:44:16;;;;;;;;;2.67;1.67;;;;;22.04;51.56;101390.16;5060264;28;46102;-64
2021/09/11 09:46:43;;;;;;;;;3.00;3.00;;;;;22.09;51.71;101386.34;5077420;27;45586;-64
2021/09/11 09:49:10;;;;;;;;;4.00;3.00;;;;;22.12;51.00;101387.06;5078647;28;45802;-64
2021/09/11 09:51:36;;;;;;;;;1.33;1.33;;;;;22.15;51.47;101380.59;5078787;27;48364;-64
2021/09/11 09:54:03;;;;;;;;;2.67;2.67;;;;;22.17;51.44;101387.63;5078583;28;45353;-64
2021/09/11 09:56:31;;;;;;;;;2.00;1.33;;;;;22.19;50.71;101388.41;5078500;27;45342;-64
2021/09/11 09:58:58;;;;;;;;;1.00;1.00;;;;;22.22;51.16;101384.66;5078476;28;45413;-64
2021/09/11 10:01:25;;;;;;;;;1.33;1.33;;;;;22.24;51.04;101383.63;5076810;28;46989;-62
2021/09/11 10:03:51;;;;;;;;;4.25;3.75;;;;;22.28;50.71;101376.19;5077770;27;46068;-62
2021/09/11 10:06:29;;;;;;;;;2.00;2.00;;;;;22.28;50.74;101377.06;5076623;28;45703;-63
2021/09/11 10:08:58;;;;;;;;;4.00;4.00;;;;;22.31;50.68;101376.88;5089326;27;45528;-64
2021/09/11 10:11:42;;;;;;;;;4.67;2.00;;;;;22.31;50.20;101373.28;5077392;28;48293;-64
2021/09/11 10:14:12;;;;;;;;;1.00;1.00;;;;;22.32;50.02;101378.59;5077266;28;45391;-63
2021/09/11 10:16:41;;;;;;;;;5.00;3.00;;;;;22.35;50.47;101380.25;5065641;28;45414;-63
2021/09/11 10:19:24;;;;;;;;;2.00;2.00;;;;;22.38;50.20;101385.50;5076244;28;45389;-64
2021/09/11 10:21:51;;;;;;;;;2.00;2.00;;;;;22.41;49.83;101382.59;5078094;28;47268;-65
2021/09/11 10:24:22;;;;;;;;;2.00;2.00;;;;;22.42;49.74;101370.81;5073812;28;45273;-64
2021/09/11 10:27:02;;;;;;;;;2.00;2.00;;;;;22.45;50.39;101383.28;5079878;27;45401;-64
2021/09/11 10:30:13;;;;;;;;;4.00;2.00;;;;;22.50;49.75;101383.88;5078357;27;45260;-64
2021/09/11 10:32:40;;;;;;;;;3.00;3.00;;;;;22.54;50.24;101383.59;5006243;28;47175;-66
2021/09/11 10:35:37;;;;;;;;;2.67;2.67;;;;;22.59;49.36;101375.19;5009340;28;45437;-65
2021/09/11 10:38:03;;;;;;;;;2.67;2.67;;;;;22.63;49.41;101371.34;5054679;27;45325;-65
2021/09/11 10:40:41;;;;;;;;;5.00;4.00;;;;;22.67;49.35;101366.59;5074850;27;45712;-66
2021/09/11 10:43:10;;;;;;;;;3.00;3.00;;;;;22.70;49.62;101378.09;5070483;28;47863;-64
2021/09/11 10:45:54;;;;;;;;;3.33;3.00;;;;;22.77;49.07;101367.78;5080873;27;46179;-65
2021/09/11 10:48:44;;;;;;;;;3.00;3.00;;;;;22.86;49.68;101373.50;5081049;27;45372;-65
2021/09/11 10:51:13;;;;;;;;;3.00;2.33;;;;;22.95;49.21;101368.50;5081736;27;45305;-65
2021/09/11 10:53:54;;;;;;;;;2.00;2.00;;;;;23.02;49.23;101361.72;5081118;27;47988;-65
2021/09/11 10:56:46;;;;;;;;;2.00;2.00;;;;;23.06;48.98;101365.97;5080721;28;45642;-65
2021/09/11 10:59:21;;;;;;;;;2.00;2.00;;;;;23.14;48.88;101363.66;5039614;28;45409;-65
2021/09/11 11:01:59;;;;;;;;;2.00;2.00;;;;;23.25;48.31;101369.25;5080875;27;45350;-65
2021/09/11 11:04:50;;;;;;;;;3.67;2.67;;;;;23.36;48.48;101365.84;5080420;27;46108;-65
2021/09/11 11:07:22;;;;;;;;;3.00;3.00;;;;;23.43;48.07;101365.34;5078793;27;45412;-64
2021/09/11 11:09:52;;;;;;;;;2.67;2.67;;;;;23.46;47.77;101372.41;5080575;27;45531;-65
2021/09/11 11:12:21;;;;;;;;;1.33;1.33;;;;;23.46;47.82;101367.84;5079714;27;45739;-64
2021/09/11 11:14:46;;;;;;;;;3.00;3.00;;;;;23.47;47.72;101377.72;5080380;27;46960;-65
2021/09/11 11:17:16;;;;;;;;;4.00;2.67;;;;;23.48;48.17;101374.03;5080332;27;45295;-66
2021/09/11 11:19:44;;;;;;;;;2.00;2.00;;;;;23.52;47.75;101377.44;5080768;27;45480;-64
2021/09/11 11:22:12;;;;;;;;;1.33;1.33;;;;;23.56;47.50;101369.97;5062716;27;45567;-66
2021/09/11 11:24:43;;;;;;;;;2.00;2.00;;;;;23.64;47.62;101362.25;5080496;27;47125;-66
2021/09/11 11:27:18;;;;;;;;;2.00;2.00;;;;;23.73;47.23;101362.47;5080988;27;45493;-67